• Join FlightAware (Why Join?)
  • Login
  • US Flag 
08:00AM EDT


 

Airport Tracker/Info


-or-


 

Live Flight TrackerFlight Track Log ✈ N66010 ✈ 03-Aug-2014 ✈ KMCO - F45

Flight Track Log - Related Links

Times and Time Zones

All times are in EDT time to prevent confusion due to time zone crossing. See the N66010 flight status page for this flight to view local times or setup timezone preferences in your user account.

Time Position Orientation Groundspeed Altitude Reporting Facility
EDT Latitude Longitude Course Direction KTS MPH feet Rate Location/Type
02:13AM 28.4167 -81.3167 156° South 71 82 1,000  Level Orlando TRACON
02:14AM 28.4167 -81.3000 90° East 93 107 1,500 600 Climbing Orlando TRACON
02:15AM 28.4167 -81.2667 90° East 73 84 2,300 660 Climbing Orlando TRACON
02:16AM 28.4333 -81.2500 41° Northeast 72 83 2,900 600 Climbing Orlando TRACON
02:17AM 28.4333 -81.2333 90° East 72 83 3,500 600 Climbing Orlando TRACON
02:18AM 28.2952 -81.2154 156° South  Level Estimated
02:18AM 28.4500 -81.2167 41° Northeast 74 85 4,200  Level Orlando TRACON
02:19AM 28.4667 -81.2000 41° Northeast 74 85 4,700 540 Climbing Orlando TRACON
02:20AM 28.4667 -81.1667 90° East 73 84 5,300 480 Climbing Orlando TRACON
02:21AM 28.4667 -81.1500 90° East 77 89 5,700 420 Climbing Orlando TRACON
02:22AM 28.4500 -81.1167 120° Southeast 74 85 6,200 420 Climbing Orlando TRACON
02:23AM 28.4500 -81.1000 90° East 78 90 6,600 420 Climbing Orlando TRACON
02:24AM 28.4333 -81.0667 120° Southeast 82 94 7,100 420 Climbing Orlando TRACON
02:25AM 28.4333 -81.0500 90° East 80 92 7,400 360 Climbing Orlando TRACON
02:26AM 28.4333 -81.0333 90° East 82 94 7,800 360 Climbing Orlando TRACON
02:27AM 28.4167 -81.0000 120° Southeast 78 90 8,200 360 Climbing Orlando TRACON
02:28AM 28.4167 -80.9833 90° East 78 90 8,600 360 Climbing Orlando TRACON
02:29AM 28.4000 -80.9500 120° Southeast 79 91 9,000 360 Climbing Orlando TRACON
02:30AM 28.4000 -80.9333 90° East 78 90 9,400 240 Climbing Orlando TRACON
02:31AM 28.3833 -80.9167 139° Southeast 85 98 9,500 60 Climbing Orlando TRACON
02:32AM 28.3500 -80.9000 156° South 113 130 9,600  Climbing Orlando TRACON
02:33AM 28.3167 -80.8833 156° South 114 131 9,600  Level Orlando TRACON
02:34AM 28.3000 -80.8667 139° Southeast 117 135 9,600 -60 Level Orlando TRACON
02:35AM 28.2667 -80.8500 156° South 114 131 9,500 -120 Descending Orlando TRACON
02:37AM 28.2019 -80.8289 164° South 113 130 9,400 -60 Descending Miami Center
02:38AM 28.1719 -80.8161 159° South 113 130 9,400  Level Miami Center
02:39AM 28.1419 -80.8033 159° South 114 131 9,500  Climbing Miami Center
02:40AM 28.1100 -80.7886 158° South 113 130 9,400  Descending Miami Center
02:41AM 28.0786 -80.7775 163° South 118 136 9,500  Climbing Miami Center
02:42AM 28.0469 -80.7625 157° South 118 136 9,500  Level Miami Center
02:43AM 28.0200 -80.7453 151° Southeast 118 136 9,500 -60 Level Miami Center
02:44AM 27.9881 -80.7286 155° Southeast 119 137 9,400 -60 Descending Miami Center
02:45AM 27.9569 -80.7128 156° South 126 145 9,400  Level Miami Center
02:46AM 27.9286 -80.6928 148° Southeast 117 135 9,400  Level Miami Center
02:47AM 27.9019 -80.6758 151° Southeast 117 135 9,400  Level Miami Center
02:48AM 27.8733 -80.6575 150° Southeast 115 132 9,400  Level Miami Center
02:49AM 27.8464 -80.6414 152° Southeast 115 132 9,400  Level Miami Center
02:50AM 27.8194 -80.6253 152° Southeast 115 132 9,400  Level Miami Center
02:51AM 27.7900 -80.6075 152° Southeast 115 132 9,400  Level Miami Center
02:52AM 27.7628 -80.5897 150° Southeast 115 132 9,500  Climbing Miami Center
02:53AM 27.7325 -80.5714 152° Southeast 115 132 9,400 -60 Descending Miami Center
02:54AM 27.7044 -80.5556 153° Southeast 116 133 9,400 -60 Level Miami Center
02:55AM 27.6742 -80.5389 154° Southeast 116 133 9,300  Descending Miami Center
02:56AM 27.6469 -80.5225 152° Southeast 116 133 9,400  Climbing Miami Center
02:57AM 27.6153 -80.5089 159° South 116 133 9,400  Level Miami Center
02:58AM 27.5858 -80.4942 156° South 116 133 9,400  Level Miami Center
02:59AM 27.5531 -80.4781 156° South 119 137 9,400 -60 Level Miami Center
03:00AM 27.5231 -80.4633 156° South 120 138 9,300  Descending Miami Center
03:01AM 27.4900 -80.4497 160° South 121 139 9,400  Climbing Miami Center
03:02AM 27.4603 -80.4386 162° South 119 137 9,400  Level Miami Center
03:03AM 27.4278 -80.4261 161° South 119 137 9,400  Level Miami Center
03:04AM 27.3975 -80.4153 162° South 119 137 9,500  Climbing Miami Center
03:05AM 27.3644 -80.4042 163° South 119 137 9,400  Descending Miami Center
03:06AM 27.3331 -80.3936 163° South 120 138 9,500  Climbing Miami Center
03:07AM 27.3000 -80.3797 160° South 120 138 9,500 -60 Level Miami Center
03:08AM 27.2683 -80.3686 163° South 121 139 9,400  Descending Miami Center
03:09AM 27.2364 -80.3578 163° South 121 139 9,500  Climbing Miami Center
03:10AM 27.2019 -80.3483 166° South 121 139 9,500 -120 Level Miami Center
03:11AM 27.1692 -80.3386 165° South 126 145 9,300 -360 Descending Miami Center
03:12AM 27.1303 -80.3311 170° South 133 153 8,800 -720 Descending Miami Center
03:13AM 27.0933 -80.3200 165° South 141 162 7,900 -1,020 Descending Miami Center
03:14AM 27.0542 -80.3078 164° South 141 162 6,800 -960 Descending Miami Center
03:15AM 27.0192 -80.2975 165° South 138 159 6,000 -660 Descending Miami Center
03:16AM 26.9842 -80.2864 164° South 127 146 5,500 -420 Descending Miami Center
03:17AM 26.9531 -80.2767 164° South 126 145 5,200 -300 Descending Miami Center
03:19AM 26.9212 -80.2522 156° South  Level FlightAware Approximate
03:26AM 26.8459 -80.2223 160° South  Level Estimated
03:27AM 26.8459 -80.2223 158° South  Level Estimated
03:28AM 26.8459 -80.2223 158° South  Level Estimated
03:29AM 26.8459 -80.2223 160° South  Level Estimated
03:30AM 26.8459 -80.2223 158° South  Level Estimated
03:31AM 26.8459 -80.2223 158° South  Level Estimated